createdAt,value
2018-09-28T00:02:28.393Z,3.30
2018-09-28T00:04:59.004Z,3.60
2018-09-28T00:07:29.644Z,3.40
2018-09-28T00:10:00.250Z,4.00
2018-09-28T00:12:30.886Z,3.55
2018-09-28T00:15:01.493Z,3.30
2018-09-28T00:20:37.272Z,3.52
2018-09-28T00:23:07.829Z,3.70
2018-09-28T00:25:38.415Z,3.55
2018-09-28T00:28:08.999Z,2.98
2018-09-28T00:30:39.921Z,3.83
2018-09-28T00:33:10.484Z,3.62
2018-09-28T00:35:41.285Z,3.58
2018-09-28T00:38:12.048Z,3.70
2018-09-28T00:40:42.966Z,3.80
2018-09-28T00:43:13.544Z,3.58
2018-09-28T00:45:44.119Z,4.00
2018-09-28T00:48:15.099Z,4.40
2018-09-28T00:50:45.689Z,4.47
2018-09-28T00:53:16.327Z,3.95
2018-09-28T00:55:46.927Z,3.87
2018-09-28T00:58:17.491Z,4.10
2018-09-28T01:00:48.091Z,3.67
2018-09-28T01:03:19.011Z,3.80
2018-09-28T01:05:49.622Z,3.98
2018-09-28T01:08:20.196Z,4.28
2018-09-28T01:10:50.992Z,3.87
2018-09-28T01:13:21.580Z,4.50
2018-09-28T01:15:52.179Z,4.58
2018-09-28T01:18:22.789Z,4.22
2018-09-28T01:20:53.557Z,4.37
2018-09-28T01:23:24.151Z,4.78
2018-09-28T01:25:54.716Z,4.30
2018-09-28T01:28:25.652Z,4.00
2018-09-28T01:30:56.749Z,4.45
2018-09-28T01:33:27.375Z,3.98
2018-09-28T01:35:57.959Z,3.77
2018-09-28T01:38:28.584Z,4.17
2018-09-28T01:40:59.491Z,4.30
2018-09-28T01:43:30.094Z,4.05
2018-09-28T01:46:00.668Z,4.72
2018-09-28T01:48:31.370Z,4.22
2018-09-28T01:51:01.945Z,4.47
2018-09-28T01:53:32.529Z,4.92
2018-09-28T01:56:03.105Z,4.50
2018-09-28T01:58:33.690Z,5.12
2018-09-28T02:01:04.455Z,4.92
2018-09-28T02:03:35.115Z,4.70
2018-09-28T02:06:09.091Z,5.08
2018-09-28T02:08:39.679Z,4.87
2018-09-28T02:11:10.283Z,4.85
2018-09-28T02:13:40.853Z,4.50
2018-09-28T02:16:11.651Z,4.37
2018-09-28T02:18:42.227Z,5.08
2018-09-28T02:21:12.816Z,4.70
2018-09-28T02:23:43.398Z,5.08
2018-09-28T02:26:14.188Z,5.05
2018-09-28T02:28:44.757Z,4.90
2018-09-28T02:31:15.534Z,4.53
2018-09-28T02:33:46.109Z,4.85
2018-09-28T02:36:16.702Z,4.92
2018-09-28T02:38:47.527Z,5.08
2018-09-28T02:41:18.311Z,4.72
2018-09-28T02:43:48.909Z,6.40
2018-09-28T02:46:19.512Z,5.20
2018-09-28T02:48:50.059Z,5.17
2018-09-28T02:51:20.667Z,5.20
2018-09-28T02:53:51.222Z,5.30
2018-09-28T02:56:22.166Z,5.15
2018-09-28T02:58:52.755Z,5.22
2018-09-28T03:01:23.320Z,4.90
2018-09-28T03:04:00.381Z,5.47
2018-09-28T03:06:30.958Z,5.10
2018-09-28T03:09:01.792Z,5.78
2018-09-28T03:11:32.372Z,4.72
2018-09-28T03:14:03.290Z,5.28
2018-09-28T03:16:34.019Z,5.12
2018-09-28T03:19:04.797Z,5.37
2018-09-28T03:21:35.580Z,5.40
2018-09-28T03:24:06.492Z,5.17
2018-09-28T03:26:37.088Z,4.70
2018-09-28T03:29:07.664Z,5.33
2018-09-28T03:31:38.264Z,5.28
2018-09-28T03:34:09.035Z,5.53
2018-09-28T03:36:39.692Z,5.78
2018-09-28T03:39:10.630Z,5.47
2018-09-28T03:41:41.238Z,6.37
2018-09-28T03:44:11.836Z,6.10
2018-09-28T03:46:42.436Z,5.97
2018-09-28T03:49:13.036Z,5.50
2018-09-28T03:51:43.604Z,5.83
2018-09-28T03:54:14.408Z,6.05
2018-09-28T03:56:45.000Z,6.55
2018-09-28T03:59:15.582Z,6.80
2018-09-28T04:01:46.191Z,6.30
2018-09-28T04:04:16.756Z,6.25
2018-09-28T04:06:47.868Z,5.10
2018-09-28T04:09:18.441Z,5.40
2018-09-28T04:11:49.256Z,5.67
2018-09-28T04:14:20.036Z,5.58
2018-09-28T04:16:50.643Z,5.75
2018-09-28T04:19:21.967Z,5.92
2018-09-28T04:22:01.254Z,5.65
2018-09-28T04:24:32.708Z,5.87
2018-09-28T04:27:03.408Z,7.62
2018-09-28T04:29:34.338Z,6.28
2018-09-28T04:32:05.186Z,6.22
2018-09-28T04:34:35.985Z,6.75
2018-09-28T04:37:07.161Z,8.18
2018-09-28T04:39:37.759Z,7.80
2018-09-28T04:42:08.459Z,6.47
2018-09-28T04:44:39.063Z,6.92
2018-09-28T04:47:09.732Z,8.00
2018-09-28T04:49:40.308Z,6.87
2018-09-28T04:52:11.084Z,7.28
2018-09-28T04:54:41.761Z,7.20
2018-09-28T04:57:12.541Z,7.78
2018-09-28T04:59:43.375Z,6.95
2018-09-28T05:02:13.939Z,7.45
2018-09-28T05:04:44.552Z,7.40
2018-09-28T05:07:15.160Z,8.28
2018-09-28T05:09:45.718Z,7.70
2018-09-28T05:12:16.312Z,7.60
2018-09-28T05:14:46.884Z,7.67
2018-09-28T05:17:17.708Z,8.13
2018-09-28T05:19:48.632Z,7.45
2018-09-28T05:22:19.757Z,5.80
2018-09-28T05:24:50.431Z,6.75
2018-09-28T05:27:21.166Z,6.78
2018-09-28T05:29:51.943Z,7.03
2018-09-28T05:32:22.658Z,6.58
2018-09-28T05:34:53.336Z,6.42
2018-09-28T05:37:24.028Z,6.78
2018-09-28T05:39:54.734Z,5.85
2018-09-28T05:42:25.310Z,7.72
2018-09-28T05:44:56.102Z,6.70
2018-09-28T05:47:26.667Z,7.10
2018-09-28T05:49:57.260Z,6.78
2018-09-28T05:52:27.843Z,7.30
2018-09-28T05:54:58.631Z,6.67
2018-09-28T05:57:29.216Z,7.65
2018-09-28T06:00:05.182Z,7.37
2018-09-28T06:02:41.092Z,7.12
2018-09-28T06:05:17.160Z,7.10
2018-09-28T06:07:53.869Z,7.40
2018-09-28T06:10:24.507Z,7.55
2018-09-28T06:12:55.125Z,7.12
2018-09-28T06:15:25.725Z,6.83
2018-09-28T06:17:56.445Z,7.95
2018-09-28T06:20:27.170Z,7.35
2018-09-28T06:22:57.743Z,6.80
2018-09-28T06:25:28.344Z,8.08
2018-09-28T06:27:59.051Z,7.78
2018-09-28T06:30:29.647Z,7.67
2018-09-28T06:33:00.461Z,8.08
2018-09-28T06:35:31.093Z,8.88
2018-09-28T06:38:01.821Z,7.85
2018-09-28T06:40:32.439Z,8.73
2018-09-28T06:43:03.006Z,7.75
2018-09-28T06:45:33.947Z,8.38
2018-09-28T06:48:05.222Z,7.78
2018-09-28T06:50:35.975Z,8.00
2018-09-28T06:53:06.787Z,7.60
2018-09-28T06:55:37.387Z,8.38
2018-09-28T06:58:08.049Z,7.70
2018-09-28T07:00:38.834Z,7.75
2018-09-28T07:03:09.604Z,8.08
2018-09-28T07:05:40.216Z,7.83
2018-09-28T07:08:11.016Z,8.18
2018-09-28T07:10:43.015Z,10.00
2018-09-28T07:13:13.636Z,10.55
2018-09-28T07:15:44.203Z,9.85
2018-09-28T07:18:14.833Z,10.53
2018-09-28T07:20:45.598Z,9.63
2018-09-28T07:23:16.410Z,10.00
2018-09-28T07:25:47.198Z,9.73
2018-09-28T07:28:17.886Z,10.63
2018-09-28T07:30:48.494Z,9.93
2018-09-28T07:33:19.087Z,11.25
2018-09-28T07:35:49.732Z,12.10
2018-09-28T07:38:20.503Z,11.50
2018-09-28T07:40:51.286Z,10.90
2018-09-28T07:43:22.212Z,11.75
2018-09-28T07:45:52.784Z,10.23
2018-09-28T07:48:23.439Z,12.43
2018-09-28T07:50:54.324Z,11.25
2018-09-28T07:53:25.072Z,10.80
2018-09-28T07:55:55.978Z,12.63
2018-09-28T07:58:26.744Z,13.70
2018-09-28T08:00:57.568Z,13.15
2018-09-28T08:03:29.103Z,14.25
2018-09-28T08:06:00.616Z,16.62
2018-09-28T08:08:31.387Z,16.35
2018-09-28T08:11:02.023Z,13.83
2018-09-28T08:13:32.643Z,16.67
2018-09-28T08:16:03.228Z,15.40
2018-09-28T08:18:33.863Z,15.08
2018-09-28T08:21:04.505Z,17.45
2018-09-28T08:23:35.579Z,17.02
2018-09-28T08:26:06.797Z,18.32
2018-09-28T08:28:37.620Z,16.45
2018-09-28T08:31:08.199Z,17.40
2018-09-28T08:33:38.812Z,18.90
2018-09-28T08:36:09.396Z,21.85
2018-09-28T08:38:40.213Z,19.02
2018-09-28T08:41:10.812Z,19.00
2018-09-28T08:43:41.676Z,15.70
2018-09-28T08:46:12.439Z,17.42
2018-09-28T08:48:43.019Z,18.55
2018-09-28T08:51:13.626Z,18.98
2018-09-28T08:53:44.756Z,20.25
2018-09-28T08:56:15.564Z,17.95
2018-09-28T08:58:46.351Z,19.20
2018-09-28T09:01:16.963Z,20.32
2018-09-28T09:03:47.544Z,17.75
2018-09-28T09:06:18.184Z,19.75
2018-09-28T09:08:48.922Z,20.88
2018-09-28T09:11:19.552Z,20.57
2018-09-28T09:13:50.130Z,22.93
2018-09-28T09:16:20.941Z,23.62
2018-09-28T09:18:51.611Z,24.92
2018-09-28T09:21:23.124Z,23.38
2018-09-28T09:23:53.760Z,26.00
2018-09-28T09:26:24.775Z,23.85
2018-09-28T09:28:55.488Z,24.87
2018-09-28T09:31:26.112Z,24.98
2018-09-28T09:33:56.724Z,26.12
2018-09-28T09:36:27.333Z,24.32
2018-09-28T09:38:58.515Z,26.10
2018-09-28T09:41:29.091Z,27.05
2018-09-28T09:43:59.719Z,28.32
2018-09-28T09:46:30.303Z,30.20
2018-09-28T09:49:00.908Z,29.90
2018-09-28T09:51:31.495Z,31.57
2018-09-28T09:54:02.124Z,32.25
2018-09-28T09:56:32.708Z,33.33
2018-09-28T09:59:03.652Z,32.63
2018-09-28T10:01:39.700Z,37.63
2018-09-28T10:04:11.139Z,35.43
2018-09-28T10:06:41.728Z,39.03
2018-09-28T10:09:13.645Z,38.28
2018-09-28T10:11:44.252Z,34.05
2018-09-28T10:14:14.879Z,36.13
2018-09-28T10:16:45.447Z,33.53
2018-09-28T10:19:16.089Z,37.63
2018-09-28T10:21:46.882Z,35.38
2018-09-28T10:24:17.721Z,38.88
2018-09-28T10:26:48.331Z,36.53
2018-09-28T10:29:18.930Z,40.80
2018-09-28T10:31:49.536Z,42.17
2018-09-28T10:34:20.197Z,41.63
2018-09-28T10:36:57.750Z,39.03
2018-09-28T10:39:28.460Z,43.23
2018-09-28T10:41:59.205Z,39.53
2018-09-28T10:44:29.794Z,43.95
2018-09-28T10:47:00.575Z,45.08
2018-09-28T10:49:31.372Z,47.00
2018-09-28T10:52:02.155Z,41.90
2018-09-28T10:54:32.779Z,41.15
2018-09-28T10:57:03.355Z,41.65
2018-09-28T10:59:33.940Z,43.38
2018-09-28T11:02:04.545Z,43.87
2018-09-28T11:04:35.185Z,46.20
2018-09-28T11:07:06.113Z,35.75
2018-09-28T11:09:36.722Z,46.33
2018-09-28T11:12:08.012Z,42.58
2018-09-28T11:14:38.600Z,46.55
2018-09-28T11:17:09.212Z,38.45
2018-09-28T11:19:39.804Z,43.58
2018-09-28T11:22:10.668Z,45.45
2018-09-28T11:24:41.251Z,47.27
2018-09-28T11:27:11.881Z,44.42
2018-09-28T11:29:42.696Z,45.20
2018-09-28T11:32:13.303Z,39.73
2018-09-28T11:34:43.912Z,49.65
2018-09-28T11:37:14.517Z,46.28
2018-09-28T11:39:45.158Z,49.33
2018-09-28T11:42:15.916Z,42.20
2018-09-28T11:44:46.626Z,44.23
2018-09-28T11:47:17.231Z,43.15
2018-09-28T11:49:47.828Z,41.40
2018-09-28T11:52:18.483Z,41.95
2018-09-28T11:54:49.072Z,36.93
2018-09-28T11:57:19.717Z,38.08
2018-09-28T11:59:50.487Z,36.28
2018-09-28T12:02:21.347Z,32.78
2018-09-28T12:04:51.945Z,28.70
2018-09-28T12:07:22.540Z,29.55
2018-09-28T12:09:53.151Z,27.17
2018-09-28T12:12:24.264Z,24.37
2018-09-28T12:14:54.863Z,22.52
2018-09-28T12:17:25.462Z,19.10
2018-09-28T12:19:56.125Z,19.05
2018-09-28T12:22:26.737Z,18.85
2018-09-28T12:24:57.320Z,17.73
2018-09-28T12:27:27.957Z,17.62
2018-09-28T12:29:58.746Z,17.27
2018-09-28T12:32:29.744Z,17.65
2018-09-28T12:35:00.322Z,16.12
2018-09-28T12:37:31.123Z,15.68
2018-09-28T12:40:01.811Z,16.77
2018-09-28T12:42:32.550Z,15.18
2018-09-28T12:45:03.411Z,15.18
2018-09-28T12:47:34.155Z,15.05
2018-09-28T12:50:04.829Z,16.00
2018-09-28T12:52:35.471Z,14.85
2018-09-28T12:55:06.488Z,14.47
2018-09-28T12:57:37.424Z,13.48
2018-09-28T13:00:08.398Z,13.98
2018-09-28T13:02:39.248Z,12.90
2018-09-28T13:05:10.023Z,14.28
2018-09-28T13:07:40.665Z,13.13
2018-09-28T13:10:11.267Z,12.13
2018-09-28T13:12:41.934Z,11.80
2018-09-28T13:15:12.750Z,11.80
2018-09-28T13:17:43.444Z,11.93
2018-09-28T13:20:14.251Z,10.72
2018-09-28T13:22:45.303Z,12.20
2018-09-28T13:25:15.888Z,10.75
2018-09-28T13:27:46.555Z,10.85
2018-09-28T13:30:17.146Z,9.88
2018-09-28T13:32:47.992Z,9.15
2018-09-28T13:35:18.704Z,8.80
2018-09-28T13:37:49.291Z,9.03
2018-09-28T13:40:19.896Z,7.70
2018-09-28T13:42:50.496Z,7.80
2018-09-28T13:45:21.114Z,7.12
2018-09-28T13:47:51.901Z,5.65
2018-09-28T13:50:22.527Z,6.87
2018-09-28T13:52:53.448Z,5.50
2018-09-28T13:55:24.210Z,5.10
2018-09-28T13:57:54.800Z,5.70
2018-09-28T14:00:25.455Z,5.00
2018-09-28T14:02:56.169Z,5.80
2018-09-28T14:05:26.752Z,5.70
2018-09-28T14:07:57.404Z,4.67
2018-09-28T14:10:28.064Z,5.33
2018-09-28T14:12:58.835Z,5.35
2018-09-28T14:15:29.603Z,5.28
2018-09-28T14:18:00.214Z,4.90
2018-09-28T14:20:30.852Z,4.83
2018-09-28T14:23:01.612Z,4.70
2018-09-28T14:25:32.216Z,4.40
2018-09-28T14:28:03.272Z,4.67
2018-09-28T14:30:34.029Z,4.05
2018-09-28T14:33:04.775Z,3.62
2018-09-28T14:35:35.555Z,4.12
2018-09-28T14:38:06.212Z,3.72
2018-09-28T14:40:37.092Z,3.40
2018-09-28T14:43:06.664Z,3.50
2018-09-28T14:45:37.272Z,4.05
2018-09-28T14:48:07.892Z,3.58
2018-09-28T14:50:38.679Z,3.47
2018-09-28T14:53:09.431Z,3.20
2018-09-28T14:55:40.004Z,3.42
2018-09-28T14:58:10.598Z,3.42
2018-09-28T15:00:41.468Z,4.15
2018-09-28T15:03:12.164Z,3.42
2018-09-28T15:05:42.779Z,3.52
2018-09-28T15:08:13.403Z,3.25
2018-09-28T15:10:44.147Z,3.17
2018-09-28T15:13:14.947Z,3.85
2018-09-28T15:15:45.537Z,3.45
2018-09-28T15:18:16.163Z,3.55
2018-09-28T15:20:46.928Z,3.45
2018-09-28T15:23:17.746Z,3.02
2018-09-28T15:25:48.336Z,3.55
2018-09-28T15:28:19.173Z,3.42
2018-09-28T15:30:49.751Z,3.52
2018-09-28T15:33:20.555Z,3.80
2018-09-28T15:35:51.120Z,3.20
2018-09-28T15:38:21.748Z,2.70
2018-09-28T15:40:52.683Z,2.45
2018-09-28T15:43:23.290Z,2.47
2018-09-28T15:45:54.064Z,2.75
2018-09-28T15:48:24.661Z,2.40
2018-09-28T15:50:55.450Z,2.95
2018-09-28T15:53:26.056Z,2.72
2018-09-28T15:55:56.647Z,2.83
2018-09-28T15:58:27.225Z,3.02
2018-09-28T16:00:58.023Z,2.80
2018-09-28T16:03:28.608Z,2.52
2018-09-28T16:05:59.600Z,3.20
2018-09-28T16:08:30.175Z,2.42
2018-09-28T16:11:00.791Z,2.90
2018-09-28T16:13:31.368Z,3.20
2018-09-28T16:16:02.286Z,2.77
2018-09-28T16:18:32.929Z,3.00
2018-09-28T16:21:03.683Z,3.20
2018-09-28T16:23:34.469Z,3.85
2018-09-28T16:26:05.281Z,2.60
2018-09-28T16:28:36.068Z,3.05
2018-09-28T16:31:07.003Z,4.05
2018-09-28T16:33:37.578Z,3.00
2018-09-28T16:36:08.247Z,3.15
2018-09-28T16:38:39.024Z,4.25
2018-09-28T16:41:09.591Z,2.90
2018-09-28T16:43:40.184Z,3.10
2018-09-28T16:46:10.780Z,2.98
2018-09-28T16:48:41.368Z,3.10
2018-09-28T16:51:11.963Z,3.25
2018-09-28T16:53:42.555Z,3.67
2018-09-28T16:56:13.156Z,3.20
2018-09-28T16:58:43.723Z,4.08
2018-09-28T17:01:14.311Z,4.03
2018-09-28T17:03:44.908Z,4.20
2018-09-28T17:06:15.731Z,4.62
2018-09-28T17:08:46.316Z,5.33
2018-09-28T17:11:17.116Z,4.60
2018-09-28T17:13:47.705Z,4.80
2018-09-28T17:16:18.334Z,5.12
2018-09-28T17:18:49.067Z,4.78
2018-09-28T17:21:19.673Z,5.92
2018-09-28T17:23:50.455Z,5.62
2018-09-28T17:26:21.112Z,5.22
2018-09-28T17:28:51.694Z,4.78
2018-09-28T17:31:22.332Z,5.33
2018-09-28T17:33:53.131Z,5.42
2018-09-28T17:36:23.731Z,4.85
2018-09-28T17:38:54.335Z,6.17
2018-09-28T17:41:25.137Z,5.72
2018-09-28T17:43:55.880Z,5.87
2018-09-28T17:46:26.479Z,5.28
2018-09-28T17:48:57.092Z,6.05
2018-09-28T17:51:27.699Z,6.22
2018-09-28T17:53:58.518Z,6.33
2018-09-28T17:56:29.318Z,6.25
2018-09-28T17:59:00.239Z,6.62
2018-09-28T18:01:30.854Z,6.33
2018-09-28T18:04:01.460Z,6.87
2018-09-28T18:06:32.037Z,6.83
2018-09-28T18:09:03.051Z,6.12
2018-09-28T18:11:33.681Z,6.22
2018-09-28T18:14:04.324Z,5.92
2018-09-28T18:16:35.078Z,6.05
2018-09-28T18:19:05.827Z,8.10
2018-09-28T18:21:36.403Z,7.70
2018-09-28T18:24:07.471Z,7.97
2018-09-28T18:26:38.236Z,7.08
2018-09-28T18:29:09.040Z,7.87
2018-09-28T18:31:39.623Z,6.72
2018-09-28T18:34:10.219Z,5.50
2018-09-28T18:36:40.808Z,6.90
2018-09-28T18:39:11.484Z,6.05
2018-09-28T18:41:42.084Z,6.95
2018-09-28T18:44:12.660Z,6.17
2018-09-28T18:46:43.264Z,6.95
2018-09-28T18:49:13.848Z,5.87
2018-09-28T18:51:44.450Z,6.42
2018-09-28T18:54:15.015Z,6.25
2018-09-28T18:56:45.626Z,6.20
2018-09-28T18:59:16.194Z,7.53
2018-09-28T19:01:46.990Z,6.75
2018-09-28T19:04:17.887Z,6.30
2018-09-28T19:06:48.474Z,7.70
2018-09-28T19:09:19.048Z,7.58
2018-09-28T19:11:49.897Z,6.83
2018-09-28T19:14:20.489Z,7.72
2018-09-28T19:16:51.088Z,6.42
2018-09-28T19:19:21.672Z,6.50
2018-09-28T19:21:52.270Z,6.12
2018-09-28T19:24:23.163Z,6.90
2018-09-28T19:26:53.764Z,6.40
2018-09-28T19:29:24.310Z,9.48
2018-09-28T19:31:55.115Z,10.90
2018-09-28T19:34:25.687Z,10.78
2018-09-28T19:36:56.486Z,12.13
2018-09-28T19:39:27.087Z,12.33
2018-09-28T19:41:57.852Z,10.90
2018-09-28T19:44:28.499Z,11.53
2018-09-28T19:46:59.092Z,12.63
2018-09-28T19:49:29.657Z,10.60
2018-09-28T19:52:00.256Z,10.00
2018-09-28T19:54:30.868Z,9.10
2018-09-28T19:57:01.447Z,7.67
2018-09-28T19:59:32.255Z,7.05
2018-09-28T20:02:02.872Z,7.70
2018-09-28T20:04:33.480Z,8.20
2018-09-28T20:07:04.084Z,6.58
2018-09-28T20:09:35.021Z,5.78
2018-09-28T20:12:05.908Z,5.72
2018-09-28T20:14:36.528Z,5.65
2018-09-28T20:17:07.302Z,5.47
2018-09-28T20:19:37.909Z,5.30
2018-09-28T20:22:10.619Z,5.70
2018-09-28T20:24:41.456Z,5.53
2018-09-28T20:27:12.244Z,6.00
2018-09-28T20:29:43.247Z,5.42
2018-09-28T20:32:13.822Z,5.62
2018-09-28T20:34:45.132Z,5.42
2018-09-28T20:37:16.719Z,5.47
2018-09-28T20:39:48.487Z,5.62
2018-09-28T20:42:20.183Z,5.15
2018-09-28T20:44:51.754Z,5.65
2018-09-28T20:47:24.490Z,5.70
2018-09-28T20:49:55.582Z,5.42
2018-09-28T20:52:26.943Z,6.25
2018-09-28T20:54:58.960Z,6.25
2018-09-28T20:57:29.547Z,6.95
2018-09-28T21:00:00.144Z,5.30
2018-09-28T21:02:30.739Z,5.47
2018-09-28T21:05:01.520Z,5.30
2018-09-28T21:07:32.130Z,4.95
2018-09-28T21:10:03.151Z,4.85
2018-09-28T21:12:33.703Z,4.85
2018-09-28T21:15:04.667Z,4.85
2018-09-28T21:17:35.227Z,4.42
2018-09-28T21:20:05.863Z,4.28
2018-09-28T21:22:37.341Z,4.72
2018-09-28T21:25:08.799Z,4.80
2018-09-28T21:27:39.359Z,4.42
2018-09-28T21:30:10.028Z,5.15
2018-09-28T21:32:40.760Z,4.95
2018-09-28T21:35:11.507Z,4.42
2018-09-28T21:37:42.295Z,4.97
2018-09-28T21:40:12.923Z,5.10
2018-09-28T21:42:43.527Z,5.00
2018-09-28T21:45:14.117Z,4.33
2018-09-28T21:47:44.835Z,4.67
2018-09-28T21:50:15.565Z,4.42
2018-09-28T21:52:46.151Z,5.30
2018-09-28T21:55:16.744Z,5.80
2018-09-28T21:57:47.500Z,5.45
2018-09-28T22:00:18.091Z,4.85
2018-09-28T22:02:48.692Z,4.35
2018-09-28T22:05:19.291Z,5.10
2018-09-28T22:07:49.852Z,4.22
2018-09-28T22:10:20.456Z,5.50
2018-09-28T22:12:51.055Z,4.53
2018-09-28T22:15:21.635Z,5.80
2018-09-28T22:17:52.220Z,5.30
2018-09-28T22:20:22.262Z,4.78
2018-09-28T22:22:52.819Z,4.30
2018-09-28T22:25:23.407Z,4.53
2018-09-28T22:27:53.983Z,4.90
2018-09-28T22:30:24.586Z,4.20
2018-09-28T22:32:55.147Z,4.47
2018-09-28T22:35:25.948Z,4.33
2018-09-28T22:37:56.515Z,4.70
2018-09-28T22:40:27.144Z,4.90
2018-09-28T22:42:57.153Z,4.07
2018-09-28T22:45:27.195Z,4.30
2018-09-28T22:47:57.776Z,5.70
2018-09-28T22:50:28.144Z,4.47
2018-09-28T22:52:58.167Z,5.50
2018-09-28T22:55:28.196Z,3.63
2018-09-28T22:57:58.231Z,4.28
2018-09-28T23:00:28.244Z,4.20
2018-09-28T23:02:58.315Z,4.80
2018-09-28T23:05:28.316Z,4.40
2018-09-28T23:07:58.461Z,4.23
2018-09-28T23:10:28.708Z,4.60
2018-09-28T23:12:58.907Z,4.50
2018-09-28T23:15:28.923Z,4.53
2018-09-28T23:17:59.159Z,4.77
2018-09-28T23:20:29.186Z,4.20
2018-09-28T23:22:59.247Z,3.83
2018-09-28T23:25:29.429Z,4.20
2018-09-28T23:27:59.482Z,4.03
2018-09-28T23:30:29.496Z,3.40
2018-09-28T23:32:59.548Z,3.73
2018-09-28T23:35:29.755Z,3.90
2018-09-28T23:37:59.776Z,3.67
2018-09-28T23:40:29.799Z,3.97
2018-09-28T23:42:59.827Z,4.43
2018-09-28T23:45:29.860Z,3.33
2018-09-28T23:47:59.911Z,3.83
2018-09-28T23:50:30.144Z,3.93
2018-09-28T23:53:00.150Z,4.03
2018-09-28T23:55:30.188Z,4.50
2018-09-28T23:58:00.206Z,3.50
